Map

Track Data

SID SEASON NUMBER BASIN SUBBASIN NAME ISO_TIME NATURE LAT LON WMO_WIND WMO_PRES WMO_AGENCY TRACK_TYPE DIST2LAND LANDFALL IFLAG USA_AGENCY USA_ATCF_ID USA_LAT USA_LON USA_RECORD USA_STATUS USA_WIND USA_PRES USA_SSHS USA_R34_NE USA_R34_SE USA_R34_SW USA_R34_NW USA_R50_NE USA_R50_SE USA_R50_SW USA_R50_NW USA_R64_NE USA_R64_SE USA_R64_SW USA_R64_NW USA_POCI USA_ROCI USA_RMW USA_EYE TOKYO_LAT TOKYO_LON TOKYO_GRADE TOKYO_WIND TOKYO_PRES TOKYO_R50_DIR TOKYO_R50_LONG TOKYO_R50_SHORT TOKYO_R30_DIR TOKYO_R30_LONG TOKYO_R30_SHORT TOKYO_LAND CMA_LAT CMA_LON CMA_CAT CMA_WIND CMA_PRES HKO_LAT HKO_LON HKO_CAT HKO_WIND HKO_PRES NEWDELHI_LAT NEWDELHI_LON NEWDELHI_GRADE NEWDELHI_WIND NEWDELHI_PRES NEWDELHI_CI NEWDELHI_DP NEWDELHI_POCI REUNION_LAT REUNION_LON REUNION_TYPE REUNION_WIND REUNION_PRES REUNION_TNUM REUNION_CI REUNION_RMW REUNION_R34_NE REUNION_R34_SE REUNION_R34_SW REUNION_R34_NW REUNION_R50_NE REUNION_R50_SE REUNION_R50_SW REUNION_R50_NW REUNION_R64_NE REUNION_R64_SE REUNION_R64_SW REUNION_R64_NW BOM_LAT BOM_LON BOM_TYPE BOM_WIND BOM_PRES BOM_TNUM BOM_CI BOM_RMW BOM_R34_NE BOM_R34_SE BOM_R34_SW BOM_R34_NW BOM_R50_NE BOM_R50_SE BOM_R50_SW BOM_R50_NW BOM_R64_NE BOM_R64_SE BOM_R64_SW BOM_R64_NW BOM_ROCI BOM_POCI BOM_EYE BOM_POS_METHOD BOM_PRES_METHOD NADI_LAT NADI_LON NADI_CAT NADI_WIND NADI_PRES WELLINGTON_LAT WELLINGTON_LON WELLINGTON_WIND WELLINGTON_PRES DS824_LAT DS824_LON DS824_STAGE DS824_WIND DS824_PRES TD9636_LAT TD9636_LON TD9636_STAGE TD9636_WIND TD9636_PRES TD9635_LAT TD9635_LON TD9635_WIND TD9635_PRES TD9635_ROCI NEUMANN_LAT NEUMANN_LON NEUMANN_CLASS NEUMANN_WIND NEUMANN_PRES MLC_LAT MLC_LON MLC_CLASS MLC_WIND MLC_PRES USA_GUST BOM_GUST BOM_GUST_PER REUNION_GUST REUNION_GUST_PER USA_SEAHGT USA_SEARAD_NE USA_SEARAD_SE USA_SEARAD_SW USA_SEARAD_NW STORM_SPEED STORM_DIR
1948303N09091 1948 81 NI BB NOT_NAMED 1948-10-28 18:00:00 TS 8.50000 91.0000 main 566 566 O________O____ jtwc_io IO131948 8.50000 91.0000 -1 8.50000 91.0000 TC 3 341
1948303N09091 1948 81 NI BB NOT_NAMED 1948-10-28 21:00:00 TS 8.65000 90.9375 main 588 588 P________P____ IO131948 8.65000 90.9375 -1 8.65000 90.9375 TC 3 343
1948303N09091 1948 81 NI BB NOT_NAMED 1948-10-29 00:00:00 TS 8.80000 90.9000 main 594 594 O________O____ jtwc_io IO131948 8.80000 90.9000 -1 8.80000 90.9000 TC 25 3 354
1948303N09091 1948 81 NI BB NOT_NAMED 1948-10-29 03:00:00 TS 8.94444 90.9000 main 601 601 P________PO___ IO131948 8.95000 90.9000 -1 8.95000 90.9000 TC 25 8.90000 90.9000 1 3 0
1948303N09091 1948 81 NI BB NOT_NAMED 1948-10-29 06:00:00 TS 9.09938 90.8891 main 615 615 O________OP___ jtwc_io IO131948 9.10000 90.9000 -1 9.10000 90.9000 TC 25 9.09690 90.8454 1 3 351
1948303N09091 1948 81 NI BB NOT_NAMED 1948-10-29 09:00:00 TS 9.25956 90.8398 main 638 638 P________PP___ IO131948 9.25000 90.8575 -1 9.25000 90.8575 TC 25 9.28505 90.7927 1 3 342
1948303N09091 1948 81 NI BB NOT_NAMED 1948-10-29 12:00:00 TS 9.41856 90.7812 main 645 645 O________OP___ jtwc_io IO131948 9.40000 90.8000 -1 9.40000 90.8000 TC 25 9.45567 90.7436 1 3 343
1948303N09091 1948 81 NI BB NOT_NAMED 1948-10-29 15:00:00 TS 9.57166 90.7383 main 668 668 P________PO___ IO131948 9.55749 90.7575 -1 9.55749 90.7575 TC 25 9.60000 90.7000 1 3 342
1948303N09091 1948 81 NI BB NOT_NAMED 1948-10-29 18:00:00 TS 9.70498 90.6868 main 676 676 O________OP___ jtwc_io IO131948 9.70000 90.7000 -1 9.70000 90.7000 TC 25 9.71493 90.6604 1 3 331
1948303N09091 1948 81 NI BB NOT_NAMED 1948-10-29 21:00:00 TS 9.79662 90.6132 main 691 691 P________PP___ IO131948 9.78499 90.6150 -1 9.78499 90.6150 TC 25 9.81988 90.6097 1 3 320
1948303N09091 1948 81 NI BB NOT_NAMED 1948-10-30 00:00:00 TS 9.91330 90.5097 main 707 707 O________OP___ jtwc_io IO131948 9.90000 90.5000 -1 9.90000 90.5000 TC 25 9.93989 90.5291 1 4 325
1948303N09091 1948 81 NI BB NOT_NAMED 1948-10-30 03:00:00 TS 10.1183 90.3817 main 730 730 P________PO___ IO131948 10.1275 90.3725 -1 10.1275 90.3725 TC 25 10.1000 90.4000 1 6 327
1948303N09091 1948 81 NI BB NOT_NAMED 1948-10-30 06:00:00 TS 10.3787 90.2015 main 756 745 O________OP___ jtwc_io IO131948 10.4000 90.2000 -1 10.4000 90.2000 TC 25 10.3360 90.2045 1 7 322
1948303N09091 1948 81 NI BB NOT_NAMED 1948-10-30 09:00:00 TS 10.6375 89.9684 main 752 742 P________PP___ IO131948 10.6500 89.9725 -1 10.6500 89.9725 TC 25 10.6126 89.9602 1 7 317
1948303N09091 1948 81 NI BB NOT_NAMED 1948-10-30 12:00:00 TS 10.9026 89.6952 main 748 746 O________OP___ jtwc_io IO131948 10.9000 89.7000 -1 10.9000 89.7000 TC 25 10.9079 89.6857 1 8 313
1948303N09091 1948 81 NI BB NOT_NAMED 1948-10-30 15:00:00 TS 11.1667 89.4000 main 746 746 P________PO___ IO131948 11.1500 89.4000 -1 11.1500 89.4000 TC 25 11.2000 89.4000 1 8 312
1948303N09091 1948 81 NI BB NOT_NAMED 1948-10-30 18:00:00 TS 11.4163 89.1147 main 754 746 O________OP___ jtwc_io IO131948 11.4000 89.1000 -1 11.4000 89.1000 TC 25 11.4489 89.1441 1 7 313
1948303N09091 1948 81 NI BB NOT_NAMED 1948-10-30 21:00:00 TS 11.6591 88.8598 main 747 747 P________PP___ IO131948 11.6424 88.8499 -1 11.6424 88.8499 TC 30 11.6923 88.8795 1 7 315
1948303N09091 1948 81 NI BB NOT_NAMED 1948-10-31 00:00:00 TS 11.9132 88.6001 main 759 752 O________OP___ jtwc_io IO131948 11.9000 88.6000 -1 11.9000 88.6000 TC 35 11.9395 88.6003 1 8 315
1948303N09091 1948 81 NI BB NOT_NAMED 1948-10-31 03:00:00 TS 12.1950 88.3149 main 765 765 P________PO___ IO131948 12.1924 88.3224 -1 12.1924 88.3224 TC 35 12.2000 88.3000 2 8 314
1948303N09091 1948 81 NI BB NOT_NAMED 1948-10-31 06:00:00 TS 12.4939 87.9878 main 766 711 O________OP___ jtwc_io IO131948 12.5000 88.0000 -1 12.5000 88.0000 TC 35 12.4816 87.9634 2 9 311
1948303N09091 1948 81 NI BB NOT_NAMED 1948-10-31 09:00:00 TS 12.7926 87.6025 main 711 656 P________PP___ IO131948 12.8001 87.6000 -1 12.8001 87.6000 TC 35 12.7776 87.6075 2 10 309
1948303N09091 1948 81 NI BB NOT_NAMED 1948-10-31 12:00:00 TS 13.0949 87.2159 main 656 610 O________OP___ jtwc_io IO131948 13.1000 87.2000 -1 13.1000 87.2000 TC 35 13.0848 87.2477 2 9 311
1948303N09091 1948 81 NI BB NOT_NAMED 1948-10-31 15:00:00 TS 13.3949 86.8899 main 610 564 P________PO___ IO131948 13.3924 86.8848 -1 13.3924 86.8848 TC 35 13.4000 86.9000 3 9 316
1948303N09091 1948 81 NI BB NOT_NAMED 1948-10-31 18:00:00 TS 13.7099 86.6019 main 564 518 O________OP___ jtwc_io IO131948 13.7000 86.6000 -1 13.7000 86.6000 TC 35 13.7296 86.6056 3 9 320
1948303N09091 1948 81 NI BB NOT_NAMED 1948-10-31 21:00:00 TS 14.0548 86.3123 main 512 466 P________PP___ IO131948 14.0499 86.3074 -1 14.0499 86.3074 TC 35 14.0644 86.3220 3 9 320
1948303N09091 1948 81 NI BB NOT_NAMED 1948-11-01 00:00:00 TS 14.3973 86.0091 main 466 420 O________OP___ jtwc_io IO131948 14.4000 86.0000 -1 14.4000 86.0000 TC 35 14.3920 86.0274 3 9 317
1948303N09091 1948 81 NI BB NOT_NAMED 1948-11-01 03:00:00 TS 14.7100 85.6766 main 420 367 P________PO___ IO131948 14.7149 85.6649 -1 14.7149 85.6649 TC 35 14.7000 85.7000 3 9 312
1948303N09091 1948 81 NI BB NOT_NAMED 1948-11-01 06:00:00 TS 14.9917 85.3157 main 367 328 O________OP___ jtwc_io IO131948 15.0000 85.3000 -1 15.0000 85.3000 TC 35 14.9751 85.3470 3 9 307
1948303N09091 1948 81 NI BB NOT_NAMED 1948-11-01 09:00:00 TS 15.2479 84.9379 main 319 265 P________PP___ IO131948 15.2573 84.9298 -1 15.2573 84.9298 TC 35 15.2291 84.9542 3 9 302
1948303N09091 1948 81 NI BB NOT_NAMED 1948-11-01 12:00:00 TS 15.4895 84.5031 main 265 207 O________OP___ jtwc_io IO131948 15.5000 84.5000 -1 15.5000 84.5000 TC 35 15.4686 84.5093 3 10 298
1948303N09091 1948 81 NI BB NOT_NAMED 1948-11-01 15:00:00 TS 15.7332 84.0015 main 207 135 P________PO___ IO131948 15.7498 84.0023 -1 15.7498 84.0023 TC 35 15.7000 84.0000 3 12 295
1948303N09091 1948 81 NI BB NOT_NAMED 1948-11-01 18:00:00 TS 15.9887 83.3835 main 135 61 O________OP___ jtwc_io IO131948 16.0000 83.4000 -1 16.0000 83.4000 TC 35 15.9660 83.3506 3 14 292
1948303N09091 1948 81 NI BB NOT_NAMED 1948-11-01 21:00:00 TS 16.2602 82.6299 main 46 0 P________PP___ IO131948 16.2805 82.6204 -1 16.2805 82.6204 TC 35 16.2195 82.6489 3 15 289
1948303N09091 1948 81 NI BB NOT_NAMED 1948-11-02 00:00:00 TS 16.4793 81.9242 main 0 0 O________OP___ jtwc_io IO131948 16.5000 81.9000 -1 16.5000 81.9000 TC 35 16.4380 81.9725 3 12 286
1948303N09091 1948 81 NI BB NOT_NAMED 1948-11-02 03:00:00 TS 16.5864 81.4498 main 0 0 P________PO___ IO131948 16.5796 81.4747 -1 16.5796 81.4747 TC 35 16.6000 81.4000 3 8 281
1948303N09091 1948 81 NI BB NOT_NAMED 1948-11-02 06:00:00 TS 16.6271 81.1447 main 0 0 O________OP___ jtwc_io IO131948 16.6000 81.2000 -1 16.6000 81.2000 TC 35 16.6812 81.0341 3 6 279
1948303N09091 1948 81 NI BB NOT_NAMED 1948-11-02 09:00:00 TS 16.6744 80.8830 main 0 0 P________PP___ IO131948 16.6574 80.9350 -1 16.6574 80.9350 TC 30 16.7085 80.7790 3 5 279
1948303N09091 1948 81 NI BB NOT_NAMED 1948-11-02 12:00:00 TS 16.7022 80.6615 main 0 0 O________OP___ jtwc_io IO131948 16.7000 80.7000 -1 16.7000 80.7000 TC 25 16.7066 80.5844 3 4 273
1948303N09091 1948 81 NI BB NOT_NAMED 1948-11-02 15:00:00 TS 16.7000 80.4333 main 0 0 P________PO___ IO131948 16.7000 80.4499 -1 16.7000 80.4499 TC 25 16.7000 80.4000 1 4 270
1948303N09091 1948 81 NI BB NOT_NAMED 1948-11-02 18:00:00 TS 16.7033 80.1941 main 0 0 O________OP___ jtwc_io IO131948 16.7000 80.2000 -1 16.7000 80.2000 TC 25 16.7082 80.1854 1 5 274
1948303N09091 1948 81 NI BB NOT_NAMED 1948-11-02 21:00:00 TS 16.7347 79.9459 main 0 0 P________PP___ IO131948 16.7376 79.9501 -1 16.7376 79.9501 TC 25 16.7309 79.9405 1 5 279
1948303N09091 1948 81 NI BB NOT_NAMED 1948-11-03 00:00:00 TS 16.7816 79.6877 main 0 0 O________OP___ jtwc_io IO131948 16.8000 79.7000 -1 16.8000 79.7000 TC 25 16.7632 79.6753 1 5 277
1948303N09091 1948 81 NI BB NOT_NAMED 1948-11-03 03:00:00 NR 16.8000 79.4000 main 0 __________O___ IO131948 -1 TC 16.8000 79.4000 1 6 274

About IBTrACS Database

This database is a web-friendly format of International Best Track Archive for Climate Stewardship (IBTrACS), a global best track data archive curated by NOAA dating back to 1842.

Updated: 2021-12-08